<?xml version="1.0" encoding="UTF-8" standalone="no" ?>
<gpx xmlns="http://www.topografix.com/GPX/1/1" xmlns:xsi="http://www.w3.org/2001/XMLSchema-instance" xsi:schemaLocation="http://www.topografix.com/GPX/1/1 http://www.topografix.com/GPX/1/1/gpx.xsd" version="1.1" creator="VisuGPX - https://www.visugpx.com">
  <metadata>
    <name>11366947-Via Garona - GR861</name>
    <desc><![CDATA[VAE Mieux Volvestre, Martes Tolosanes]]></desc>
  </metadata>
  <trk>
    <name><![CDATA[11366947-Via Garona - GR861]]></name>
    <trkseg>
      <trkpt lat="43.25789" lon="1.20135">
        <ele>218</ele>
        <time>2020-05-28T11:15:16Z</time>
      </trkpt>
      <trkpt lat="43.25717" lon="1.19958">
        <ele>218</ele>
        <time>2020-05-28T11:18:33Z</time>
      </trkpt>
      <trkpt lat="43.25712" lon="1.1994">
        <ele>217</ele>
        <time>2020-05-28T11:18:51Z</time>
      </trkpt>
      <trkpt lat="43.25713" lon="1.19919">
        <ele>216</ele>
        <time>2020-05-28T11:19:12Z</time>
      </trkpt>
      <trkpt lat="43.25771" lon="1.19668">
        <ele>219</ele>
        <time>2020-05-28T11:23:28Z</time>
      </trkpt>
      <trkpt lat="43.25825" lon="1.19499">
        <ele>221</ele>
        <time>2020-05-28T11:26:27Z</time>
      </trkpt>
      <trkpt lat="43.25816" lon="1.19495">
        <ele>221</ele>
        <time>2020-05-28T11:26:40Z</time>
      </trkpt>
      <trkpt lat="43.25822" lon="1.19443">
        <ele>220</ele>
        <time>2020-05-28T11:27:31Z</time>
      </trkpt>
      <trkpt lat="43.25823" lon="1.19379">
        <ele>220</ele>
        <time>2020-05-28T11:28:33Z</time>
      </trkpt>
      <trkpt lat="43.25814" lon="1.19231">
        <ele>221</ele>
        <time>2020-05-28T11:30:58Z</time>
      </trkpt>
      <trkpt lat="43.25818" lon="1.19199">
        <ele>222</ele>
        <time>2020-05-28T11:31:29Z</time>
      </trkpt>
      <trkpt lat="43.25839" lon="1.19116">
        <ele>225</ele>
        <time>2020-05-28T11:32:54Z</time>
      </trkpt>
      <trkpt lat="43.25839" lon="1.19059">
        <ele>227</ele>
        <time>2020-05-28T11:33:50Z</time>
      </trkpt>
      <trkpt lat="43.25838" lon="1.19035">
        <ele>228</ele>
        <time>2020-05-28T11:34:13Z</time>
      </trkpt>
      <trkpt lat="43.25804" lon="1.18969">
        <ele>229</ele>
        <time>2020-05-28T11:35:32Z</time>
      </trkpt>
      <trkpt lat="43.25785" lon="1.18881">
        <ele>230</ele>
        <time>2020-05-28T11:37:01Z</time>
      </trkpt>
      <trkpt lat="43.25779" lon="1.18841">
        <ele>231</ele>
        <time>2020-05-28T11:37:41Z</time>
      </trkpt>
      <trkpt lat="43.25783" lon="1.18816">
        <ele>231</ele>
        <time>2020-05-28T11:38:06Z</time>
      </trkpt>
      <trkpt lat="43.25775" lon="1.1881">
        <ele>231</ele>
        <time>2020-05-28T11:38:18Z</time>
      </trkpt>
      <trkpt lat="43.25771" lon="1.18792">
        <ele>230</ele>
        <time>2020-05-28T11:38:36Z</time>
      </trkpt>
      <trkpt lat="43.25763" lon="1.18667">
        <ele>232</ele>
        <time>2020-05-28T11:40:38Z</time>
      </trkpt>
      <trkpt lat="43.25757" lon="1.18631">
        <ele>232</ele>
        <time>2020-05-28T11:41:14Z</time>
      </trkpt>
      <trkpt lat="43.2575" lon="1.18595">
        <ele>233</ele>
        <time>2020-05-28T11:41:50Z</time>
      </trkpt>
      <trkpt lat="43.2571" lon="1.18435">
        <ele>233</ele>
        <time>2020-05-28T11:44:34Z</time>
      </trkpt>
      <trkpt lat="43.25705" lon="1.18394">
        <ele>233</ele>
        <time>2020-05-28T11:45:15Z</time>
      </trkpt>
      <trkpt lat="43.25699" lon="1.18223">
        <ele>235</ele>
        <time>2020-05-28T11:48:01Z</time>
      </trkpt>
      <trkpt lat="43.25695" lon="1.1821">
        <ele>235</ele>
        <time>2020-05-28T11:48:15Z</time>
      </trkpt>
      <trkpt lat="43.25689" lon="1.18199">
        <ele>235</ele>
        <time>2020-05-28T11:48:28Z</time>
      </trkpt>
      <trkpt lat="43.25681" lon="1.18191">
        <ele>235</ele>
        <time>2020-05-28T11:48:42Z</time>
      </trkpt>
      <trkpt lat="43.25609" lon="1.18147">
        <ele>236</ele>
        <time>2020-05-28T11:50:27Z</time>
      </trkpt>
      <trkpt lat="43.2559" lon="1.18131">
        <ele>236</ele>
        <time>2020-05-28T11:50:56Z</time>
      </trkpt>
      <trkpt lat="43.25537" lon="1.18056">
        <ele>236</ele>
        <time>2020-05-28T11:52:38Z</time>
      </trkpt>
      <trkpt lat="43.25377" lon="1.17777">
        <ele>241</ele>
        <time>2020-05-28T11:58:23Z</time>
      </trkpt>
      <trkpt lat="43.25272" lon="1.17578">
        <ele>245</ele>
        <time>2020-05-28T12:02:22Z</time>
      </trkpt>
      <trkpt lat="43.25251" lon="1.17556">
        <ele>245</ele>
        <time>2020-05-28T12:02:57Z</time>
      </trkpt>
      <trkpt lat="43.25233" lon="1.17544">
        <ele>245</ele>
        <time>2020-05-28T12:03:24Z</time>
      </trkpt>
      <trkpt lat="43.25222" lon="1.17541">
        <ele>244</ele>
        <time>2020-05-28T12:03:39Z</time>
      </trkpt>
      <trkpt lat="43.25162" lon="1.17485">
        <ele>244</ele>
        <time>2020-05-28T12:05:16Z</time>
      </trkpt>
      <trkpt lat="43.25091" lon="1.17413">
        <ele>247</ele>
        <time>2020-05-28T12:07:13Z</time>
      </trkpt>
      <trkpt lat="43.25031" lon="1.17345">
        <ele>252</ele>
        <time>2020-05-28T12:08:57Z</time>
      </trkpt>
      <trkpt lat="43.2501" lon="1.17308">
        <ele>254</ele>
        <time>2020-05-28T12:09:43Z</time>
      </trkpt>
      <trkpt lat="43.24977" lon="1.17227">
        <ele>259</ele>
        <time>2020-05-28T12:11:13Z</time>
      </trkpt>
      <trkpt lat="43.24982" lon="1.17186">
        <ele>261</ele>
        <time>2020-05-28T12:11:54Z</time>
      </trkpt>
      <trkpt lat="43.24981" lon="1.17174">
        <ele>262</ele>
        <time>2020-05-28T12:12:05Z</time>
      </trkpt>
      <trkpt lat="43.24976" lon="1.17163">
        <ele>262</ele>
        <time>2020-05-28T12:12:18Z</time>
      </trkpt>
      <trkpt lat="43.24934" lon="1.17109">
        <ele>264</ele>
        <time>2020-05-28T12:13:35Z</time>
      </trkpt>
      <trkpt lat="43.24894" lon="1.17043">
        <ele>263</ele>
        <time>2020-05-28T12:14:58Z</time>
      </trkpt>
      <trkpt lat="43.24872" lon="1.17012">
        <ele>262</ele>
        <time>2020-05-28T12:15:40Z</time>
      </trkpt>
      <trkpt lat="43.24865" lon="1.16994">
        <ele>260</ele>
        <time>2020-05-28T12:16:00Z</time>
      </trkpt>
      <trkpt lat="43.24831" lon="1.16989">
        <ele>258</ele>
        <time>2020-05-28T12:16:46Z</time>
      </trkpt>
      <trkpt lat="43.2479" lon="1.16988">
        <ele>262</ele>
        <time>2020-05-28T12:17:40Z</time>
      </trkpt>
      <trkpt lat="43.24773" lon="1.1697">
        <ele>260</ele>
        <time>2020-05-28T12:18:09Z</time>
      </trkpt>
      <trkpt lat="43.24748" lon="1.16952">
        <ele>260</ele>
        <time>2020-05-28T12:18:47Z</time>
      </trkpt>
      <trkpt lat="43.2466" lon="1.16833">
        <ele>259</ele>
        <time>2020-05-28T12:21:32Z</time>
      </trkpt>
      <trkpt lat="43.2462" lon="1.16788">
        <ele>258</ele>
        <time>2020-05-28T12:22:41Z</time>
      </trkpt>
      <trkpt lat="43.24576" lon="1.16711">
        <ele>260</ele>
        <time>2020-05-28T12:24:16Z</time>
      </trkpt>
      <trkpt lat="43.2455" lon="1.16677">
        <ele>261</ele>
        <time>2020-05-28T12:25:04Z</time>
      </trkpt>
      <trkpt lat="43.24542" lon="1.16663">
        <ele>261</ele>
        <time>2020-05-28T12:25:21Z</time>
      </trkpt>
      <trkpt lat="43.24526" lon="1.16621">
        <ele>258</ele>
        <time>2020-05-28T12:26:07Z</time>
      </trkpt>
      <trkpt lat="43.24516" lon="1.16607">
        <ele>259</ele>
        <time>2020-05-28T12:26:26Z</time>
      </trkpt>
      <trkpt lat="43.24489" lon="1.16584">
        <ele>262</ele>
        <time>2020-05-28T12:27:08Z</time>
      </trkpt>
      <trkpt lat="43.24453" lon="1.16565">
        <ele>258</ele>
        <time>2020-05-28T12:28:00Z</time>
      </trkpt>
      <trkpt lat="43.24402" lon="1.1655">
        <ele>257</ele>
        <time>2020-05-28T12:29:09Z</time>
      </trkpt>
      <trkpt lat="43.24378" lon="1.16531">
        <ele>256</ele>
        <time>2020-05-28T12:29:46Z</time>
      </trkpt>
      <trkpt lat="43.2437" lon="1.1652">
        <ele>256</ele>
        <time>2020-05-28T12:30:02Z</time>
      </trkpt>
      <trkpt lat="43.24356" lon="1.16482">
        <ele>253</ele>
        <time>2020-05-28T12:30:43Z</time>
      </trkpt>
      <trkpt lat="43.24349" lon="1.16472">
        <ele>252</ele>
        <time>2020-05-28T12:30:56Z</time>
      </trkpt>
      <trkpt lat="43.24253" lon="1.16374">
        <ele>251</ele>
        <time>2020-05-28T12:33:36Z</time>
      </trkpt>
      <trkpt lat="43.24238" lon="1.16363">
        <ele>253</ele>
        <time>2020-05-28T12:33:59Z</time>
      </trkpt>
      <trkpt lat="43.24226" lon="1.16363">
        <ele>255</ele>
        <time>2020-05-28T12:34:15Z</time>
      </trkpt>
      <trkpt lat="43.24216" lon="1.16367">
        <ele>257</ele>
        <time>2020-05-28T12:34:29Z</time>
      </trkpt>
      <trkpt lat="43.24188" lon="1.16386">
        <ele>262</ele>
        <time>2020-05-28T12:35:10Z</time>
      </trkpt>
      <trkpt lat="43.24191" lon="1.16403">
        <ele>262</ele>
        <time>2020-05-28T12:35:27Z</time>
      </trkpt>
      <trkpt lat="43.24159" lon="1.1638">
        <ele>266</ele>
        <time>2020-05-28T12:36:16Z</time>
      </trkpt>
      <trkpt lat="43.24158" lon="1.16326">
        <ele>264</ele>
        <time>2020-05-28T12:37:08Z</time>
      </trkpt>
      <trkpt lat="43.24126" lon="1.16286">
        <ele>266</ele>
        <time>2020-05-28T12:38:06Z</time>
      </trkpt>
      <trkpt lat="43.2409" lon="1.16234">
        <ele>268</ele>
        <time>2020-05-28T12:39:16Z</time>
      </trkpt>
      <trkpt lat="43.24067" lon="1.16187">
        <ele>265</ele>
        <time>2020-05-28T12:40:11Z</time>
      </trkpt>
      <trkpt lat="43.24025" lon="1.1609">
        <ele>257</ele>
        <time>2020-05-28T12:42:00Z</time>
      </trkpt>
      <trkpt lat="43.24025" lon="1.16039">
        <ele>250</ele>
        <time>2020-05-28T12:42:50Z</time>
      </trkpt>
      <trkpt lat="43.24014" lon="1.15992">
        <ele>247</ele>
        <time>2020-05-28T12:43:38Z</time>
      </trkpt>
      <trkpt lat="43.24006" lon="1.1597">
        <ele>245</ele>
        <time>2020-05-28T12:44:02Z</time>
      </trkpt>
      <trkpt lat="43.24019" lon="1.15912">
        <ele>236</ele>
        <time>2020-05-28T12:45:01Z</time>
      </trkpt>
      <trkpt lat="43.24036" lon="1.15867">
        <ele>231</ele>
        <time>2020-05-28T12:45:50Z</time>
      </trkpt>
      <trkpt lat="43.24109" lon="1.15749">
        <ele>226</ele>
        <time>2020-05-28T12:48:21Z</time>
      </trkpt>
      <trkpt lat="43.24183" lon="1.1564">
        <ele>225</ele>
        <time>2020-05-28T12:50:45Z</time>
      </trkpt>
      <trkpt lat="43.24225" lon="1.15628">
        <ele>226</ele>
        <time>2020-05-28T12:51:43Z</time>
      </trkpt>
      <trkpt lat="43.24383" lon="1.15449">
        <ele>225</ele>
        <time>2020-05-28T12:56:16Z</time>
      </trkpt>
      <trkpt lat="43.2438" lon="1.15396">
        <ele>228</ele>
        <time>2020-05-28T12:57:08Z</time>
      </trkpt>
      <trkpt lat="43.24375" lon="1.1536">
        <ele>230</ele>
        <time>2020-05-28T12:57:43Z</time>
      </trkpt>
      <trkpt lat="43.2438" lon="1.15349">
        <ele>231</ele>
        <time>2020-05-28T12:57:56Z</time>
      </trkpt>
      <trkpt lat="43.2439" lon="1.1531">
        <ele>232</ele>
        <time>2020-05-28T12:58:36Z</time>
      </trkpt>
      <trkpt lat="43.24354" lon="1.15271">
        <ele>232</ele>
        <time>2020-05-28T12:59:37Z</time>
      </trkpt>
      <trkpt lat="43.24318" lon="1.1533">
        <ele>230</ele>
        <time>2020-05-28T13:00:52Z</time>
      </trkpt>
      <trkpt lat="43.2423" lon="1.15245">
        <ele>227</ele>
        <time>2020-05-28T13:03:16Z</time>
      </trkpt>
      <trkpt lat="43.24223" lon="1.15247">
        <ele>227</ele>
        <time>2020-05-28T13:03:25Z</time>
      </trkpt>
      <trkpt lat="43.2423" lon="1.15245">
        <ele>227</ele>
        <time>2020-05-28T13:03:35Z</time>
      </trkpt>
      <trkpt lat="43.24264" lon="1.15173">
        <ele>234</ele>
        <time>2020-05-28T13:04:58Z</time>
      </trkpt>
      <trkpt lat="43.24221" lon="1.15126">
        <ele>232</ele>
        <time>2020-05-28T13:06:12Z</time>
      </trkpt>
      <trkpt lat="43.24213" lon="1.1514">
        <ele>232</ele>
        <time>2020-05-28T13:06:29Z</time>
      </trkpt>
      <trkpt lat="43.24203" lon="1.1514">
        <ele>232</ele>
        <time>2020-05-28T13:06:42Z</time>
      </trkpt>
      <trkpt lat="43.24179" lon="1.15128">
        <ele>231</ele>
        <time>2020-05-28T13:07:16Z</time>
      </trkpt>
      <trkpt lat="43.24163" lon="1.15116">
        <ele>231</ele>
        <time>2020-05-28T13:07:41Z</time>
      </trkpt>
      <trkpt lat="43.24143" lon="1.15164">
        <ele>229</ele>
        <time>2020-05-28T13:08:34Z</time>
      </trkpt>
      <trkpt lat="43.24122" lon="1.15168">
        <ele>229</ele>
        <time>2020-05-28T13:09:03Z</time>
      </trkpt>
      <trkpt lat="43.24106" lon="1.15168">
        <ele>228</ele>
        <time>2020-05-28T13:09:24Z</time>
      </trkpt>
      <trkpt lat="43.24067" lon="1.15145">
        <ele>229</ele>
        <time>2020-05-28T13:10:21Z</time>
      </trkpt>
      <trkpt lat="43.24018" lon="1.15098">
        <ele>229</ele>
        <time>2020-05-28T13:11:40Z</time>
      </trkpt>
      <trkpt lat="43.23863" lon="1.15011">
        <ele>230</ele>
        <time>2020-05-28T13:15:24Z</time>
      </trkpt>
      <trkpt lat="43.23843" lon="1.15013">
        <ele>230</ele>
        <time>2020-05-28T13:15:51Z</time>
      </trkpt>
      <trkpt lat="43.23829" lon="1.15019">
        <ele>230</ele>
        <time>2020-05-28T13:16:10Z</time>
      </trkpt>
      <trkpt lat="43.23813" lon="1.15032">
        <ele>230</ele>
        <time>2020-05-28T13:16:35Z</time>
      </trkpt>
      <trkpt lat="43.23803" lon="1.15046">
        <ele>230</ele>
        <time>2020-05-28T13:16:54Z</time>
      </trkpt>
      <trkpt lat="43.23794" lon="1.15069">
        <ele>230</ele>
        <time>2020-05-28T13:17:20Z</time>
      </trkpt>
      <trkpt lat="43.23795" lon="1.15105">
        <ele>229</ele>
        <time>2020-05-28T13:17:55Z</time>
      </trkpt>
      <trkpt lat="43.23791" lon="1.15111">
        <ele>229</ele>
        <time>2020-05-28T13:18:02Z</time>
      </trkpt>
      <trkpt lat="43.23771" lon="1.15125">
        <ele>230</ele>
        <time>2020-05-28T13:18:32Z</time>
      </trkpt>
      <trkpt lat="43.23764" lon="1.15127">
        <ele>231</ele>
        <time>2020-05-28T13:18:42Z</time>
      </trkpt>
      <trkpt lat="43.23211" lon="1.13793">
        <ele>234</ele>
        <time>2020-05-28T13:43:34Z</time>
      </trkpt>
      <trkpt lat="43.23198" lon="1.13764">
        <ele>233</ele>
        <time>2020-05-28T13:44:07Z</time>
      </trkpt>
      <trkpt lat="43.23127" lon="1.13639">
        <ele>232</ele>
        <time>2020-05-28T13:46:41Z</time>
      </trkpt>
      <trkpt lat="43.23044" lon="1.13525">
        <ele>232</ele>
        <time>2020-05-28T13:49:18Z</time>
      </trkpt>
      <trkpt lat="43.22715" lon="1.1309">
        <ele>234</ele>
        <time>2020-05-28T13:59:28Z</time>
      </trkpt>
      <trkpt lat="43.22666" lon="1.13029">
        <ele>234</ele>
        <time>2020-05-28T14:00:56Z</time>
      </trkpt>
      <trkpt lat="43.22654" lon="1.13016">
        <ele>234</ele>
        <time>2020-05-28T14:01:16Z</time>
      </trkpt>
      <trkpt lat="43.22645" lon="1.1301">
        <ele>234</ele>
        <time>2020-05-28T14:01:30Z</time>
      </trkpt>
      <trkpt lat="43.2258" lon="1.12919">
        <ele>236</ele>
        <time>2020-05-28T14:03:34Z</time>
      </trkpt>
      <trkpt lat="43.22571" lon="1.12937">
        <ele>235</ele>
        <time>2020-05-28T14:03:55Z</time>
      </trkpt>
      <trkpt lat="43.22556" lon="1.12921">
        <ele>235</ele>
        <time>2020-05-28T14:04:20Z</time>
      </trkpt>
      <trkpt lat="43.22323" lon="1.1261">
        <ele>233</ele>
        <time>2020-05-28T14:11:34Z</time>
      </trkpt>
      <trkpt lat="43.22183" lon="1.12481">
        <ele>233</ele>
        <time>2020-05-28T14:15:19Z</time>
      </trkpt>
      <trkpt lat="43.22069" lon="1.12386">
        <ele>233</ele>
        <time>2020-05-28T14:18:17Z</time>
      </trkpt>
      <trkpt lat="43.22048" lon="1.12366">
        <ele>233</ele>
        <time>2020-05-28T14:18:51Z</time>
      </trkpt>
      <trkpt lat="43.2203" lon="1.12206">
        <ele>235</ele>
        <time>2020-05-28T14:21:29Z</time>
      </trkpt>
      <trkpt lat="43.22033" lon="1.12198">
        <ele>235</ele>
        <time>2020-05-28T14:21:37Z</time>
      </trkpt>
      <trkpt lat="43.22078" lon="1.12134">
        <ele>234</ele>
        <time>2020-05-28T14:23:04Z</time>
      </trkpt>
      <trkpt lat="43.218" lon="1.11767">
        <ele>239</ele>
        <time>2020-05-28T14:31:39Z</time>
      </trkpt>
      <trkpt lat="43.21772" lon="1.11734">
        <ele>238</ele>
        <time>2020-05-28T14:32:28Z</time>
      </trkpt>
      <trkpt lat="43.21748" lon="1.11711">
        <ele>238</ele>
        <time>2020-05-28T14:33:07Z</time>
      </trkpt>
      <trkpt lat="43.21722" lon="1.11689">
        <ele>237</ele>
        <time>2020-05-28T14:33:48Z</time>
      </trkpt>
      <trkpt lat="43.21689" lon="1.11668">
        <ele>237</ele>
        <time>2020-05-28T14:34:36Z</time>
      </trkpt>
      <trkpt lat="43.21664" lon="1.11655">
        <ele>236</ele>
        <time>2020-05-28T14:35:12Z</time>
      </trkpt>
      <trkpt lat="43.21635" lon="1.11644">
        <ele>236</ele>
        <time>2020-05-28T14:35:52Z</time>
      </trkpt>
      <trkpt lat="43.21555" lon="1.11625">
        <ele>237</ele>
        <time>2020-05-28T14:37:40Z</time>
      </trkpt>
      <trkpt lat="43.21547" lon="1.11621">
        <ele>237</ele>
        <time>2020-05-28T14:37:52Z</time>
      </trkpt>
      <trkpt lat="43.2147" lon="1.1156">
        <ele>236</ele>
        <time>2020-05-28T14:39:50Z</time>
      </trkpt>
      <trkpt lat="43.214" lon="1.11499">
        <ele>238</ele>
        <time>2020-05-28T14:41:41Z</time>
      </trkpt>
      <trkpt lat="43.21336" lon="1.11449">
        <ele>239</ele>
        <time>2020-05-28T14:43:19Z</time>
      </trkpt>
      <trkpt lat="43.21304" lon="1.11384">
        <ele>240</ele>
        <time>2020-05-28T14:44:36Z</time>
      </trkpt>
      <trkpt lat="43.21255" lon="1.11254">
        <ele>239</ele>
        <time>2020-05-28T14:46:58Z</time>
      </trkpt>
      <trkpt lat="43.21197" lon="1.11081">
        <ele>240</ele>
        <time>2020-05-28T14:50:03Z</time>
      </trkpt>
      <trkpt lat="43.21143" lon="1.10899">
        <ele>240</ele>
        <time>2020-05-28T14:53:14Z</time>
      </trkpt>
      <trkpt lat="43.21079" lon="1.10708">
        <ele>240</ele>
        <time>2020-05-28T14:56:39Z</time>
      </trkpt>
      <trkpt lat="43.20993" lon="1.10475">
        <ele>242</ele>
        <time>2020-05-28T15:00:53Z</time>
      </trkpt>
      <trkpt lat="43.20969" lon="1.10391">
        <ele>242</ele>
        <time>2020-05-28T15:02:20Z</time>
      </trkpt>
      <trkpt lat="43.20959" lon="1.10319">
        <ele>243</ele>
        <time>2020-05-28T15:03:32Z</time>
      </trkpt>
      <trkpt lat="43.20792" lon="1.10382">
        <ele>242</ele>
        <time>2020-05-28T15:07:23Z</time>
      </trkpt>
      <trkpt lat="43.20781" lon="1.10378">
        <ele>241</ele>
        <time>2020-05-28T15:07:38Z</time>
      </trkpt>
      <trkpt lat="43.20778" lon="1.10369">
        <ele>241</ele>
        <time>2020-05-28T15:07:48Z</time>
      </trkpt>
      <trkpt lat="43.20753" lon="1.10119">
        <ele>242</ele>
        <time>2020-05-28T15:11:53Z</time>
      </trkpt>
      <trkpt lat="43.20743" lon="1.09917">
        <ele>243</ele>
        <time>2020-05-28T15:15:10Z</time>
      </trkpt>
      <trkpt lat="43.20737" lon="1.09876">
        <ele>243</ele>
        <time>2020-05-28T15:15:51Z</time>
      </trkpt>
      <trkpt lat="43.2073" lon="1.0984">
        <ele>243</ele>
        <time>2020-05-28T15:16:27Z</time>
      </trkpt>
      <trkpt lat="43.20692" lon="1.0972">
        <ele>244</ele>
        <time>2020-05-28T15:18:34Z</time>
      </trkpt>
      <trkpt lat="43.2067" lon="1.09615">
        <ele>243</ele>
        <time>2020-05-28T15:20:21Z</time>
      </trkpt>
      <trkpt lat="43.20661" lon="1.09585">
        <ele>243</ele>
        <time>2020-05-28T15:20:52Z</time>
      </trkpt>
      <trkpt lat="43.20611" lon="1.0945">
        <ele>238</ele>
        <time>2020-05-28T15:23:19Z</time>
      </trkpt>
      <trkpt lat="43.20611" lon="1.09414">
        <ele>238</ele>
        <time>2020-05-28T15:23:54Z</time>
      </trkpt>
      <trkpt lat="43.20616" lon="1.09397">
        <ele>238</ele>
        <time>2020-05-28T15:24:12Z</time>
      </trkpt>
      <trkpt lat="43.20664" lon="1.09302">
        <ele>241</ele>
        <time>2020-05-28T15:26:05Z</time>
      </trkpt>
      <trkpt lat="43.20667" lon="1.09288">
        <ele>241</ele>
        <time>2020-05-28T15:26:19Z</time>
      </trkpt>
      <trkpt lat="43.20677" lon="1.09273">
        <ele>241</ele>
        <time>2020-05-28T15:26:39Z</time>
      </trkpt>
      <trkpt lat="43.20678" lon="1.09268">
        <ele>241</ele>
        <time>2020-05-28T15:26:44Z</time>
      </trkpt>
      <trkpt lat="43.20676" lon="1.09236">
        <ele>242</ele>
        <time>2020-05-28T15:27:15Z</time>
      </trkpt>
      <trkpt lat="43.20657" lon="1.09111">
        <ele>242</ele>
        <time>2020-05-28T15:29:19Z</time>
      </trkpt>
      <trkpt lat="43.20651" lon="1.09044">
        <ele>241</ele>
        <time>2020-05-28T15:30:25Z</time>
      </trkpt>
      <trkpt lat="43.20636" lon="1.08972">
        <ele>241</ele>
        <time>2020-05-28T15:31:38Z</time>
      </trkpt>
      <trkpt lat="43.20639" lon="1.08939">
        <ele>242</ele>
        <time>2020-05-28T15:32:10Z</time>
      </trkpt>
      <trkpt lat="43.2063" lon="1.08885">
        <ele>242</ele>
        <time>2020-05-28T15:33:04Z</time>
      </trkpt>
      <trkpt lat="43.20625" lon="1.08871">
        <ele>241</ele>
        <time>2020-05-28T15:33:19Z</time>
      </trkpt>
      <trkpt lat="43.20622" lon="1.08829">
        <ele>241</ele>
        <time>2020-05-28T15:34:00Z</time>
      </trkpt>
      <trkpt lat="43.20619" lon="1.08823">
        <ele>241</ele>
        <time>2020-05-28T15:34:07Z</time>
      </trkpt>
      <trkpt lat="43.20618" lon="1.08777">
        <ele>242</ele>
        <time>2020-05-28T15:34:52Z</time>
      </trkpt>
      <trkpt lat="43.20622" lon="1.08752">
        <ele>243</ele>
        <time>2020-05-28T15:35:17Z</time>
      </trkpt>
      <trkpt lat="43.20598" lon="1.08729">
        <ele>244</ele>
        <time>2020-05-28T15:35:56Z</time>
      </trkpt>
      <trkpt lat="43.20577" lon="1.08717">
        <ele>244</ele>
        <time>2020-05-28T15:36:26Z</time>
      </trkpt>
      <trkpt lat="43.2057" lon="1.08669">
        <ele>247</ele>
        <time>2020-05-28T15:37:14Z</time>
      </trkpt>
      <trkpt lat="43.20554" lon="1.08666">
        <ele>247</ele>
        <time>2020-05-28T15:37:35Z</time>
      </trkpt>
      <trkpt lat="43.20546" lon="1.08692">
        <ele>244</ele>
        <time>2020-05-28T15:38:03Z</time>
      </trkpt>
      <trkpt lat="43.20536" lon="1.08696">
        <ele>243</ele>
        <time>2020-05-28T15:38:17Z</time>
      </trkpt>
      <trkpt lat="43.20529" lon="1.0871">
        <ele>242</ele>
        <time>2020-05-28T15:38:33Z</time>
      </trkpt>
      <trkpt lat="43.20487" lon="1.08663">
        <ele>243</ele>
        <time>2020-05-28T15:39:46Z</time>
      </trkpt>
      <trkpt lat="43.2046" lon="1.08716">
        <ele>238</ele>
        <time>2020-05-28T15:40:48Z</time>
      </trkpt>
      <trkpt lat="43.20282" lon="1.08617">
        <ele>236</ele>
        <time>2020-05-28T15:45:05Z</time>
      </trkpt>
      <trkpt lat="43.20275" lon="1.08629">
        <ele>236</ele>
        <time>2020-05-28T15:45:20Z</time>
      </trkpt>
      <trkpt lat="43.20267" lon="1.08635">
        <ele>236</ele>
        <time>2020-05-28T15:45:32Z</time>
      </trkpt>
      <trkpt lat="43.20252" lon="1.08635">
        <ele>236</ele>
        <time>2020-05-28T15:45:52Z</time>
      </trkpt>
      <trkpt lat="43.20215" lon="1.08616">
        <ele>237</ele>
        <time>2020-05-28T15:46:45Z</time>
      </trkpt>
      <trkpt lat="43.20167" lon="1.0857">
        <ele>240</ele>
        <time>2020-05-28T15:48:03Z</time>
      </trkpt>
      <trkpt lat="43.20152" lon="1.0855">
        <ele>240</ele>
        <time>2020-05-28T15:48:31Z</time>
      </trkpt>
      <trkpt lat="43.20121" lon="1.08495">
        <ele>239</ele>
        <time>2020-05-28T15:49:38Z</time>
      </trkpt>
      <trkpt lat="43.20089" lon="1.08419">
        <ele>236</ele>
        <time>2020-05-28T15:51:04Z</time>
      </trkpt>
      <trkpt lat="43.20083" lon="1.08385">
        <ele>236</ele>
        <time>2020-05-28T15:51:38Z</time>
      </trkpt>
      <trkpt lat="43.20087" lon="1.08271">
        <ele>239</ele>
        <time>2020-05-28T15:53:29Z</time>
      </trkpt>
      <trkpt lat="43.20112" lon="1.08109">
        <ele>239</ele>
        <time>2020-05-28T15:56:10Z</time>
      </trkpt>
      <trkpt lat="43.20116" lon="1.08065">
        <ele>240</ele>
        <time>2020-05-28T15:56:53Z</time>
      </trkpt>
      <trkpt lat="43.20135" lon="1.07934">
        <ele>241</ele>
        <time>2020-05-28T15:59:03Z</time>
      </trkpt>
      <trkpt lat="43.20142" lon="1.07936">
        <ele>241</ele>
        <time>2020-05-28T15:59:12Z</time>
      </trkpt>
      <trkpt lat="43.20148" lon="1.07942">
        <ele>242</ele>
        <time>2020-05-28T15:59:22Z</time>
      </trkpt>
      <trkpt lat="43.20161" lon="1.07972">
        <ele>243</ele>
        <time>2020-05-28T15:59:56Z</time>
      </trkpt>
      <trkpt lat="43.20169" lon="1.07982">
        <ele>243</ele>
        <time>2020-05-28T16:00:11Z</time>
      </trkpt>
      <trkpt lat="43.20173" lon="1.07979">
        <ele>243</ele>
        <time>2020-05-28T16:00:17Z</time>
      </trkpt>
      <trkpt lat="43.20163" lon="1.0778">
        <ele>242</ele>
        <time>2020-05-28T16:03:31Z</time>
      </trkpt>
      <trkpt lat="43.20165" lon="1.07781">
        <ele>243</ele>
        <time>2020-05-28T16:03:34Z</time>
      </trkpt>
      <trkpt lat="43.20166" lon="1.07777">
        <ele>243</ele>
        <time>2020-05-28T16:03:38Z</time>
      </trkpt>
      <trkpt lat="43.20173" lon="1.07771">
        <ele>243</ele>
        <time>2020-05-28T16:03:49Z</time>
      </trkpt>
      <trkpt lat="43.20267" lon="1.07745">
        <ele>248</ele>
        <time>2020-05-28T16:05:57Z</time>
      </trkpt>
      <trkpt lat="43.20232" lon="1.07639">
        <ele>245</ele>
        <time>2020-05-28T16:07:50Z</time>
      </trkpt>
      <trkpt lat="43.20216" lon="1.07601">
        <ele>244</ele>
        <time>2020-05-28T16:08:33Z</time>
      </trkpt>
      <trkpt lat="43.20204" lon="1.07551">
        <ele>243</ele>
        <time>2020-05-28T16:09:24Z</time>
      </trkpt>
      <trkpt lat="43.20201" lon="1.07534">
        <ele>243</ele>
        <time>2020-05-28T16:09:41Z</time>
      </trkpt>
      <trkpt lat="43.20201" lon="1.07492">
        <ele>244</ele>
        <time>2020-05-28T16:10:22Z</time>
      </trkpt>
      <trkpt lat="43.2021" lon="1.07424">
        <ele>245</ele>
        <time>2020-05-28T16:11:29Z</time>
      </trkpt>
      <trkpt lat="43.20214" lon="1.07414">
        <ele>245</ele>
        <time>2020-05-28T16:11:40Z</time>
      </trkpt>
      <trkpt lat="43.20223" lon="1.07404">
        <ele>246</ele>
        <time>2020-05-28T16:11:55Z</time>
      </trkpt>
      <trkpt lat="43.20333" lon="1.07367">
        <ele>250</ele>
        <time>2020-05-28T16:14:27Z</time>
      </trkpt>
      <trkpt lat="43.20285" lon="1.07084">
        <ele>250</ele>
        <time>2020-05-28T16:19:09Z</time>
      </trkpt>
      <trkpt lat="43.20271" lon="1.07019">
        <ele>251</ele>
        <time>2020-05-28T16:20:15Z</time>
      </trkpt>
      <trkpt lat="43.20239" lon="1.07032">
        <ele>249</ele>
        <time>2020-05-28T16:21:00Z</time>
      </trkpt>
      <trkpt lat="43.20181" lon="1.07051">
        <ele>241</ele>
        <time>2020-05-28T16:22:19Z</time>
      </trkpt>
      <trkpt lat="43.20179" lon="1.07044">
        <ele>241</ele>
        <time>2020-05-28T16:22:27Z</time>
      </trkpt>
      <trkpt lat="43.20166" lon="1.06843">
        <ele>246</ele>
        <time>2020-05-28T16:25:43Z</time>
      </trkpt>
      <trkpt lat="43.20224" lon="1.06826">
        <ele>252</ele>
        <time>2020-05-28T16:27:02Z</time>
      </trkpt>
      <trkpt lat="43.20204" lon="1.0676">
        <ele>248</ele>
        <time>2020-05-28T16:28:12Z</time>
      </trkpt>
      <trkpt lat="43.20173" lon="1.0662">
        <ele>243</ele>
        <time>2020-05-28T16:30:34Z</time>
      </trkpt>
      <trkpt lat="43.20174" lon="1.06623">
        <ele>243</ele>
        <time>2020-05-28T16:30:37Z</time>
      </trkpt>
      <trkpt lat="43.20188" lon="1.06619">
        <ele>243</ele>
        <time>2020-05-28T16:30:56Z</time>
      </trkpt>
      <trkpt lat="43.20208" lon="1.06609">
        <ele>244</ele>
        <time>2020-05-28T16:31:25Z</time>
      </trkpt>
      <trkpt lat="43.20253" lon="1.06581">
        <ele>245</ele>
        <time>2020-05-28T16:32:31Z</time>
      </trkpt>
      <trkpt lat="43.20275" lon="1.06564">
        <ele>246</ele>
        <time>2020-05-28T16:33:04Z</time>
      </trkpt>
      <trkpt lat="43.203" lon="1.06526">
        <ele>246</ele>
        <time>2020-05-28T16:33:54Z</time>
      </trkpt>
      <trkpt lat="43.20315" lon="1.06496">
        <ele>246</ele>
        <time>2020-05-28T16:34:29Z</time>
      </trkpt>
      <trkpt lat="43.20322" lon="1.06491">
        <ele>246</ele>
        <time>2020-05-28T16:34:40Z</time>
      </trkpt>
      <trkpt lat="43.20329" lon="1.06491">
        <ele>247</ele>
        <time>2020-05-28T16:34:49Z</time>
      </trkpt>
      <trkpt lat="43.20413" lon="1.06545">
        <ele>249</ele>
        <time>2020-05-28T16:36:53Z</time>
      </trkpt>
      <trkpt lat="43.20435" lon="1.06456">
        <ele>249</ele>
        <time>2020-05-28T16:38:25Z</time>
      </trkpt>
      <trkpt lat="43.20445" lon="1.06297">
        <ele>247</ele>
        <time>2020-05-28T16:41:00Z</time>
      </trkpt>
      <trkpt lat="43.20449" lon="1.06279">
        <ele>247</ele>
        <time>2020-05-28T16:41:18Z</time>
      </trkpt>
      <trkpt lat="43.2047" lon="1.06234">
        <ele>250</ele>
        <time>2020-05-28T16:42:10Z</time>
      </trkpt>
      <trkpt lat="43.20441" lon="1.06199">
        <ele>250</ele>
        <time>2020-05-28T16:43:02Z</time>
      </trkpt>
      <trkpt lat="43.20404" lon="1.06143">
        <ele>250</ele>
        <time>2020-05-28T16:44:15Z</time>
      </trkpt>
      <trkpt lat="43.20376" lon="1.06064">
        <ele>249</ele>
        <time>2020-05-28T16:45:41Z</time>
      </trkpt>
      <trkpt lat="43.20349" lon="1.05998">
        <ele>247</ele>
        <time>2020-05-28T16:46:54Z</time>
      </trkpt>
      <trkpt lat="43.20341" lon="1.0599">
        <ele>247</ele>
        <time>2020-05-28T16:47:07Z</time>
      </trkpt>
      <trkpt lat="43.20347" lon="1.05978">
        <ele>247</ele>
        <time>2020-05-28T16:47:22Z</time>
      </trkpt>
      <trkpt lat="43.20354" lon="1.0597">
        <ele>248</ele>
        <time>2020-05-28T16:47:34Z</time>
      </trkpt>
      <trkpt lat="43.20399" lon="1.05932">
        <ele>250</ele>
        <time>2020-05-28T16:48:44Z</time>
      </trkpt>
      <trkpt lat="43.20438" lon="1.05884">
        <ele>251</ele>
        <time>2020-05-28T16:49:54Z</time>
      </trkpt>
      <trkpt lat="43.20477" lon="1.05813">
        <ele>250</ele>
        <time>2020-05-28T16:51:21Z</time>
      </trkpt>
      <trkpt lat="43.20503" lon="1.0582">
        <ele>251</ele>
        <time>2020-05-28T16:51:56Z</time>
      </trkpt>
      <trkpt lat="43.20548" lon="1.05919">
        <ele>254</ele>
        <time>2020-05-28T16:53:49Z</time>
      </trkpt>
      <trkpt lat="43.20563" lon="1.05899">
        <ele>254</ele>
        <time>2020-05-28T16:54:17Z</time>
      </trkpt>
      <trkpt lat="43.20571" lon="1.05895">
        <ele>254</ele>
        <time>2020-05-28T16:54:29Z</time>
      </trkpt>
      <trkpt lat="43.20586" lon="1.05907">
        <ele>254</ele>
        <time>2020-05-28T16:54:52Z</time>
      </trkpt>
      <trkpt lat="43.20604" lon="1.05882">
        <ele>255</ele>
        <time>2020-05-28T16:55:26Z</time>
      </trkpt>
      <trkpt lat="43.20618" lon="1.05831">
        <ele>255</ele>
        <time>2020-05-28T16:56:19Z</time>
      </trkpt>
      <trkpt lat="43.20629" lon="1.05778">
        <ele>257</ele>
        <time>2020-05-28T16:57:13Z</time>
      </trkpt>
      <trkpt lat="43.20629" lon="1.05694">
        <ele>256</ele>
        <time>2020-05-28T16:58:34Z</time>
      </trkpt>
      <trkpt lat="43.20536" lon="1.05082">
        <ele>255</ele>
        <time>2020-05-28T17:08:42Z</time>
      </trkpt>
      <trkpt lat="43.20489" lon="1.04796">
        <ele>257</ele>
        <time>2020-05-28T17:13:28Z</time>
      </trkpt>
      <trkpt lat="43.20415" lon="1.04437">
        <ele>253</ele>
        <time>2020-05-28T17:19:31Z</time>
      </trkpt>
      <trkpt lat="43.20383" lon="1.04267">
        <ele>254</ele>
        <time>2020-05-28T17:22:21Z</time>
      </trkpt>
      <trkpt lat="43.20312" lon="1.04031">
        <ele>254</ele>
        <time>2020-05-28T17:26:30Z</time>
      </trkpt>
      <trkpt lat="43.2031" lon="1.04032">
        <ele>254</ele>
        <time>2020-05-28T17:26:33Z</time>
      </trkpt>
      <trkpt lat="43.20302" lon="1.04011">
        <ele>254</ele>
        <time>2020-05-28T17:26:56Z</time>
      </trkpt>
      <trkpt lat="43.20283" lon="1.03984">
        <ele>254</ele>
        <time>2020-05-28T17:27:32Z</time>
      </trkpt>
      <trkpt lat="43.20266" lon="1.03964">
        <ele>255</ele>
        <time>2020-05-28T17:28:02Z</time>
      </trkpt>
      <trkpt lat="43.2025" lon="1.03951">
        <ele>255</ele>
        <time>2020-05-28T17:28:27Z</time>
      </trkpt>
      <trkpt lat="43.20231" lon="1.03913">
        <ele>255</ele>
        <time>2020-05-28T17:29:12Z</time>
      </trkpt>
      <trkpt lat="43.2021" lon="1.03861">
        <ele>256</ele>
        <time>2020-05-28T17:30:09Z</time>
      </trkpt>
      <trkpt lat="43.20149" lon="1.0377">
        <ele>256</ele>
        <time>2020-05-28T17:32:10Z</time>
      </trkpt>
      <trkpt lat="43.20073" lon="1.03687">
        <ele>255</ele>
        <time>2020-05-28T17:34:19Z</time>
      </trkpt>
      <trkpt lat="43.20037" lon="1.03661">
        <ele>255</ele>
        <time>2020-05-28T17:35:14Z</time>
      </trkpt>
      <trkpt lat="43.19992" lon="1.03623">
        <ele>255</ele>
        <time>2020-05-28T17:36:24Z</time>
      </trkpt>
      <trkpt lat="43.19922" lon="1.03593">
        <ele>256</ele>
        <time>2020-05-28T17:38:02Z</time>
      </trkpt>
      <trkpt lat="43.19897" lon="1.03585">
        <ele>257</ele>
        <time>2020-05-28T17:38:36Z</time>
      </trkpt>
      <trkpt lat="43.19825" lon="1.0354">
        <ele>258</ele>
        <time>2020-05-28T17:40:22Z</time>
      </trkpt>
      <trkpt lat="43.19793" lon="1.03526">
        <ele>258</ele>
        <time>2020-05-28T17:41:07Z</time>
      </trkpt>
      <trkpt lat="43.1978" lon="1.03523">
        <ele>259</ele>
        <time>2020-05-28T17:41:24Z</time>
      </trkpt>
      <trkpt lat="43.19756" lon="1.03509">
        <ele>259</ele>
        <time>2020-05-28T17:41:59Z</time>
      </trkpt>
      <trkpt lat="43.19732" lon="1.03485">
        <ele>259</ele>
        <time>2020-05-28T17:42:39Z</time>
      </trkpt>
      <trkpt lat="43.19733" lon="1.03476">
        <ele>260</ele>
        <time>2020-05-28T17:42:48Z</time>
      </trkpt>
      <trkpt lat="43.19667" lon="1.03386">
        <ele>260</ele>
        <time>2020-05-28T17:44:52Z</time>
      </trkpt>
      <trkpt lat="43.19633" lon="1.0335">
        <ele>259</ele>
        <time>2020-05-28T17:45:49Z</time>
      </trkpt>
      <trkpt lat="43.19584" lon="1.03309">
        <ele>256</ele>
        <time>2020-05-28T17:47:06Z</time>
      </trkpt>
      <trkpt lat="43.19583" lon="1.03288">
        <ele>256</ele>
        <time>2020-05-28T17:47:26Z</time>
      </trkpt>
      <trkpt lat="43.19586" lon="1.03283">
        <ele>256</ele>
        <time>2020-05-28T17:47:32Z</time>
      </trkpt>
      <trkpt lat="43.19568" lon="1.03205">
        <ele>253</ele>
        <time>2020-05-28T17:48:52Z</time>
      </trkpt>
      <trkpt lat="43.19551" lon="1.03165">
        <ele>251</ele>
        <time>2020-05-28T17:49:37Z</time>
      </trkpt>
      <trkpt lat="43.19549" lon="1.03155">
        <ele>251</ele>
        <time>2020-05-28T17:49:47Z</time>
      </trkpt>
      <trkpt lat="43.19542" lon="1.03148">
        <ele>251</ele>
        <time>2020-05-28T17:49:59Z</time>
      </trkpt>
      <trkpt lat="43.19529" lon="1.03127">
        <ele>250</ele>
        <time>2020-05-28T17:50:25Z</time>
      </trkpt>
      <trkpt lat="43.19519" lon="1.03099">
        <ele>250</ele>
        <time>2020-05-28T17:50:56Z</time>
      </trkpt>
      <trkpt lat="43.19467" lon="1.0291">
        <ele>251</ele>
        <time>2020-05-28T17:54:12Z</time>
      </trkpt>
      <trkpt lat="43.19439" lon="1.02782">
        <ele>251</ele>
        <time>2020-05-28T17:56:22Z</time>
      </trkpt>
      <trkpt lat="43.19427" lon="1.02715">
        <ele>250</ele>
        <time>2020-05-28T17:57:29Z</time>
      </trkpt>
      <trkpt lat="43.19428" lon="1.02659">
        <ele>251</ele>
        <time>2020-05-28T17:58:24Z</time>
      </trkpt>
      <trkpt lat="43.19439" lon="1.02619">
        <ele>252</ele>
        <time>2020-05-28T17:59:06Z</time>
      </trkpt>
      <trkpt lat="43.1947" lon="1.02542">
        <ele>254</ele>
        <time>2020-05-28T18:00:31Z</time>
      </trkpt>
      <trkpt lat="43.19475" lon="1.02514">
        <ele>255</ele>
        <time>2020-05-28T18:00:59Z</time>
      </trkpt>
      <trkpt lat="43.19454" lon="1.02418">
        <ele>257</ele>
        <time>2020-05-28T18:02:37Z</time>
      </trkpt>
      <trkpt lat="43.19453" lon="1.02408">
        <ele>257</ele>
        <time>2020-05-28T18:02:47Z</time>
      </trkpt>
      <trkpt lat="43.1946" lon="1.02384">
        <ele>258</ele>
        <time>2020-05-28T18:03:12Z</time>
      </trkpt>
      <trkpt lat="43.19481" lon="1.02358">
        <ele>261</ele>
        <time>2020-05-28T18:03:49Z</time>
      </trkpt>
      <trkpt lat="43.19682" lon="1.02152">
        <ele>266</ele>
        <time>2020-05-28T18:09:24Z</time>
      </trkpt>
      <trkpt lat="43.19688" lon="1.02146">
        <ele>266</ele>
        <time>2020-05-28T18:09:34Z</time>
      </trkpt>
      <trkpt lat="43.19699" lon="1.02142">
        <ele>266</ele>
        <time>2020-05-28T18:09:49Z</time>
      </trkpt>
      <trkpt lat="43.19704" lon="1.02129">
        <ele>266</ele>
        <time>2020-05-28T18:10:04Z</time>
      </trkpt>
      <trkpt lat="43.19728" lon="1.02089">
        <ele>265</ele>
        <time>2020-05-28T18:10:54Z</time>
      </trkpt>
      <trkpt lat="43.19734" lon="1.02073">
        <ele>265</ele>
        <time>2020-05-28T18:11:12Z</time>
      </trkpt>
      <trkpt lat="43.19736" lon="1.02039">
        <ele>265</ele>
        <time>2020-05-28T18:11:45Z</time>
      </trkpt>
      <trkpt lat="43.1973" lon="1.02">
        <ele>265</ele>
        <time>2020-05-28T18:12:24Z</time>
      </trkpt>
      <trkpt lat="43.19698" lon="1.01844">
        <ele>264</ele>
        <time>2020-05-28T18:15:01Z</time>
      </trkpt>
      <trkpt lat="43.19716" lon="1.01842">
        <ele>265</ele>
        <time>2020-05-28T18:15:25Z</time>
      </trkpt>
      <trkpt lat="43.19756" lon="1.01828">
        <ele>265</ele>
        <time>2020-05-28T18:16:20Z</time>
      </trkpt>
      <trkpt lat="43.19772" lon="1.01827">
        <ele>265</ele>
        <time>2020-05-28T18:16:42Z</time>
      </trkpt>
      <trkpt lat="43.19782" lon="1.01824">
        <ele>265</ele>
        <time>2020-05-28T18:16:55Z</time>
      </trkpt>
      <trkpt lat="43.19791" lon="1.01818">
        <ele>265</ele>
        <time>2020-05-28T18:17:09Z</time>
      </trkpt>
      <trkpt lat="43.1985" lon="1.01721">
        <ele>264</ele>
        <time>2020-05-28T18:19:12Z</time>
      </trkpt>
      <trkpt lat="43.19856" lon="1.01719">
        <ele>264</ele>
        <time>2020-05-28T18:19:20Z</time>
      </trkpt>
      <trkpt lat="43.19857" lon="1.0171">
        <ele>264</ele>
        <time>2020-05-28T18:19:29Z</time>
      </trkpt>
      <trkpt lat="43.19855" lon="1.01707">
        <ele>264</ele>
        <time>2020-05-28T18:19:33Z</time>
      </trkpt>
      <trkpt lat="43.19869" lon="1.01673">
        <ele>263</ele>
        <time>2020-05-28T18:20:11Z</time>
      </trkpt>
      <trkpt lat="43.19887" lon="1.01639">
        <ele>263</ele>
        <time>2020-05-28T18:20:52Z</time>
      </trkpt>
      <trkpt lat="43.19882" lon="1.0163">
        <ele>264</ele>
        <time>2020-05-28T18:21:03Z</time>
      </trkpt>
      <trkpt lat="43.19873" lon="1.01473">
        <ele>266</ele>
        <time>2020-05-28T18:23:36Z</time>
      </trkpt>
      <trkpt lat="43.19877" lon="1.0147">
        <ele>266</ele>
        <time>2020-05-28T18:23:42Z</time>
      </trkpt>
      <trkpt lat="43.19877" lon="1.01466">
        <ele>266</ele>
        <time>2020-05-28T18:23:46Z</time>
      </trkpt>
      <trkpt lat="43.19873" lon="1.01462">
        <ele>266</ele>
        <time>2020-05-28T18:23:52Z</time>
      </trkpt>
      <trkpt lat="43.1987" lon="1.01428">
        <ele>267</ele>
        <time>2020-05-28T18:24:26Z</time>
      </trkpt>
      <trkpt lat="43.19866" lon="1.01423">
        <ele>267</ele>
        <time>2020-05-28T18:24:33Z</time>
      </trkpt>
      <trkpt lat="43.19834" lon="1.01401">
        <ele>267</ele>
        <time>2020-05-28T18:25:21Z</time>
      </trkpt>
      <trkpt lat="43.19817" lon="1.01382">
        <ele>267</ele>
        <time>2020-05-28T18:25:50Z</time>
      </trkpt>
      <trkpt lat="43.19806" lon="1.01362">
        <ele>267</ele>
        <time>2020-05-28T18:26:14Z</time>
      </trkpt>
      <trkpt lat="43.19798" lon="1.01355">
        <ele>267</ele>
        <time>2020-05-28T18:26:27Z</time>
      </trkpt>
      <trkpt lat="43.19789" lon="1.01351">
        <ele>267</ele>
        <time>2020-05-28T18:26:40Z</time>
      </trkpt>
      <trkpt lat="43.19786" lon="1.01327">
        <ele>267</ele>
        <time>2020-05-28T18:27:03Z</time>
      </trkpt>
      <trkpt lat="43.19801" lon="1.01301">
        <ele>267</ele>
        <time>2020-05-28T18:27:36Z</time>
      </trkpt>
      <trkpt lat="43.1983" lon="1.01264">
        <ele>268</ele>
        <time>2020-05-28T18:28:28Z</time>
      </trkpt>
      <trkpt lat="43.19882" lon="1.01178">
        <ele>270</ele>
        <time>2020-05-28T18:30:17Z</time>
      </trkpt>
      <trkpt lat="43.199" lon="1.01192">
        <ele>270</ele>
        <time>2020-05-28T18:30:45Z</time>
      </trkpt>
    </trkseg>
  </trk>
</gpx>